createdAt,value
2018-02-20T00:00:09.615Z,95.07
2018-02-20T00:01:09.532Z,94.98
2018-02-20T00:02:09.508Z,95.17
2018-02-20T00:03:09.481Z,95.21
2018-02-20T00:04:09.453Z,94.93
2018-02-20T00:05:09.481Z,95.26
2018-02-20T00:06:09.405Z,94.7
2018-02-20T00:07:09.117Z,94.7
2018-02-20T00:08:09.354Z,94.6
2018-02-20T00:09:09.328Z,94.79
2018-02-20T00:10:09.305Z,94.41
2018-02-20T00:11:09.014Z,94.74
2018-02-20T00:12:09.256Z,94.84
2018-02-20T00:13:09.230Z,94.6
2018-02-20T00:14:08.938Z,94.79
2018-02-20T00:15:09.178Z,94.13
2018-02-20T00:16:09.160Z,93.94
2018-02-20T00:17:08.868Z,93.89
2018-02-20T00:18:08.838Z,94.32
2018-02-20T00:19:08.816Z,93.99
2018-02-20T00:20:09.057Z,94.27
2018-02-20T00:21:08.767Z,93.37
2018-02-20T00:22:09.013Z,93.47
2018-02-20T00:23:08.711Z,93.47
2018-02-20T00:24:08.954Z,93.56
2018-02-20T00:25:08.926Z,92.99
2018-02-20T00:26:08.908Z,92.94
2018-02-20T00:27:08.616Z,92.66
2018-02-20T00:28:08.853Z,92.66
2018-02-20T00:29:08.561Z,92.29
2018-02-20T00:30:08.801Z,91.63
2018-02-20T00:31:08.777Z,91.82
2018-02-20T00:32:08.750Z,91.91
2018-02-20T00:33:08.461Z,91.91
2018-02-20T00:34:08.701Z,91.48
2018-02-20T00:35:08.410Z,91.72
2018-02-20T00:36:08.656Z,91.34
2018-02-20T00:37:08.359Z,91.58
2018-02-20T00:38:08.332Z,90.87
2018-02-20T00:39:08.574Z,91.15
2018-02-20T00:40:08.284Z,90.77
2018-02-20T00:41:08.522Z,90.4
2018-02-20T00:42:08.497Z,90.87
2018-02-20T00:43:08.208Z,90.49
2018-02-20T00:44:08.184Z,90.49
2018-02-20T00:45:08.422Z,90.68
2018-02-20T00:46:08.399Z,90.68
2018-02-20T00:47:08.105Z,90.02
2018-02-20T00:48:08.343Z,89.73
2018-02-20T00:49:08.316Z,89.83
2018-02-20T00:50:08.296Z,89.54
2018-02-20T00:51:08.272Z,90.02
2018-02-20T00:52:07.981Z,89.83
2018-02-20T00:53:08.222Z,89.73
2018-02-20T00:54:07.927Z,89.92
2018-02-20T00:55:08.165Z,89.92
2018-02-20T00:56:08.141Z,89.92
2018-02-20T00:57:08.118Z,90.02
2018-02-20T00:58:08.093Z,90.02
2018-02-20T00:59:07.798Z,90.11
2018-02-20T01:00:07.775Z,90.3
2018-02-20T01:01:07.798Z,90.02
2018-02-20T01:02:07.722Z,90.02
2018-02-20T01:03:07.963Z,89.17
2018-02-20T01:04:07.938Z,89.07
2018-02-20T01:05:07.648Z,89.36
2018-02-20T01:06:07.891Z,88.98
2018-02-20T01:07:07.597Z,89.36
2018-02-20T01:08:07.572Z,89.07
2018-02-20T01:09:07.811Z,89.26
2018-02-20T01:10:07.797Z,89.45
2018-02-20T01:11:07.760Z,89.45
2018-02-20T01:12:07.735Z,88.79
2018-02-20T01:13:07.705Z,88.98
2018-02-20T01:14:07.685Z,88.79
2018-02-20T01:15:07.662Z,88.6
2018-02-20T01:16:07.371Z,88.7
2018-02-20T01:17:07.608Z,88.6
2018-02-20T01:18:07.587Z,88.51
2018-02-20T01:19:07.554Z,88.79
2018-02-20T01:20:07.531Z,88.89
2018-02-20T01:21:07.503Z,88.7
2018-02-20T01:22:07.213Z,88.7
2018-02-20T01:23:07.189Z,88.89
2018-02-20T01:24:07.428Z,88.89
2018-02-20T01:25:07.403Z,88.6
2018-02-20T01:26:07.516Z,88.89
2018-02-20T01:27:07.350Z,88.98
2018-02-20T01:28:07.326Z,88.89
2018-02-20T01:29:07.035Z,88.89
2018-02-20T01:30:07.272Z,88.23
2018-02-20T01:31:06.984Z,88.7
2018-02-20T01:32:06.959Z,88.6
2018-02-20T01:33:07.198Z,88.32
2018-02-20T01:34:07.169Z,88.6
2018-02-20T01:35:06.878Z,88.13
2018-02-20T01:36:07.117Z,88.04
2018-02-20T01:37:06.826Z,88.51
2018-02-20T01:38:07.068Z,88.6
2018-02-20T01:39:07.042Z,88.51
2018-02-20T01:40:06.754Z,88.13
2018-02-20T01:41:06.988Z,88.51
2018-02-20T01:42:06.962Z,88.32
2018-02-20T01:43:06.944Z,88.42
2018-02-20T01:44:06.650Z,88.51
2018-02-20T01:45:06.890Z,87.94
2018-02-20T01:46:06.597Z,88.04
2018-02-20T01:47:06.581Z,87.75
2018-02-20T01:48:06.551Z,87.66
2018-02-20T01:49:06.788Z,87.56
2018-02-20T01:50:06.496Z,87.85
2018-02-20T01:51:06.732Z,87.37
2018-02-20T01:52:06.714Z,87.66
2018-02-20T01:53:06.684Z,87.85
2018-02-20T01:54:06.397Z,87.37
2018-02-20T01:55:06.380Z,87.37
2018-02-20T01:56:06.341Z,87.56
2018-02-20T01:57:06.585Z,87.18
2018-02-20T01:58:06.579Z,87.56
2018-02-20T01:59:06.534Z,87.75
2018-02-20T02:00:06.507Z,87.37
2018-02-20T02:01:06.478Z,86.99
2018-02-20T02:02:06.193Z,87.37
2018-02-20T02:03:06.432Z,87.28
2018-02-20T02:04:06.413Z,87.37
2018-02-20T02:05:06.484Z,87.09
2018-02-20T02:06:06.091Z,87.18
2018-02-20T02:07:06.099Z,87.28
2018-02-20T02:08:06.301Z,87.28
2018-02-20T02:09:06.285Z,87.28
2018-02-20T02:10:06.256Z,87.09
2018-02-20T02:11:06.247Z,87.37
2018-02-20T02:12:05.935Z,87.56
2018-02-20T02:13:05.909Z,87.47
2018-02-20T02:14:05.885Z,87.37
2018-02-20T02:15:05.864Z,87.47
2018-02-20T02:16:06.103Z,87.66
2018-02-20T02:17:06.084Z,87.66
2018-02-20T02:18:06.051Z,87.75
2018-02-20T02:19:06.028Z,87.66
2018-02-20T02:20:06.003Z,88.6
2018-02-20T02:21:05.706Z,88.23
2018-02-20T02:22:05.683Z,88.6
2018-02-20T02:23:05.917Z,88.32
2018-02-20T02:24:05.898Z,88.23
2018-02-20T02:25:05.875Z,88.51
2018-02-20T02:26:05.852Z,88.6
2018-02-20T02:27:05.815Z,88.32
2018-02-20T02:28:05.796Z,88.42
2018-02-20T02:29:05.502Z,88.42
2018-02-20T02:30:05.745Z,88.6
2018-02-20T02:31:05.720Z,88.23
2018-02-20T02:32:05.695Z,88.23
2018-02-20T02:33:05.674Z,88.89
2018-02-20T02:34:05.642Z,88.79
2018-02-20T02:35:05.613Z,88.79
2018-02-20T02:36:05.335Z,88.42
2018-02-20T02:37:05.565Z,88.6
2018-02-20T02:38:05.534Z,88.79
2018-02-20T02:39:05.519Z,88.32
2018-02-20T02:40:05.487Z,88.7
2018-02-20T02:41:05.458Z,88.98
2018-02-20T02:42:05.173Z,88.98
2018-02-20T02:43:05.411Z,88.79
2018-02-20T02:44:05.385Z,88.79
2018-02-20T02:45:05.098Z,88.79
2018-02-20T02:46:05.074Z,88.7
2018-02-20T02:47:05.322Z,88.89
2018-02-20T02:48:05.018Z,88.98
2018-02-20T02:49:05.257Z,88.98
2018-02-20T02:50:05.239Z,88.79
2018-02-20T02:51:05.209Z,89.07
2018-02-20T02:52:04.913Z,88.98
2018-02-20T02:53:05.157Z,88.79
2018-02-20T02:54:05.129Z,88.89
2018-02-20T02:55:05.108Z,88.79
2018-02-20T02:56:05.075Z,88.79
2018-02-20T02:57:05.053Z,88.98
2018-02-20T02:58:05.075Z,88.98
2018-02-20T02:59:05.011Z,88.7
2018-02-20T03:00:04.972Z,88.79
2018-02-20T03:01:04.954Z,88.6
2018-02-20T03:02:04.919Z,88.89
2018-02-20T03:03:04.899Z,88.6
2018-02-20T03:04:04.871Z,88.32
2018-02-20T03:05:04.579Z,88.32
2018-02-20T03:06:04.562Z,88.42
2018-02-20T03:07:04.526Z,88.51
2018-02-20T03:08:04.501Z,88.42
2018-02-20T03:09:04.474Z,88.51
2018-02-20T03:10:04.446Z,88.32
2018-02-20T03:11:04.423Z,87.75
2018-02-20T03:12:04.664Z,87.85
2018-02-20T03:13:04.636Z,87.85
2018-02-20T03:14:04.344Z,87.75
2018-02-20T03:15:04.583Z,88.04
2018-02-20T03:16:04.559Z,87.9
2018-02-20T03:17:04.531Z,87.75
2018-02-20T03:18:04.506Z,87.94
2018-02-20T03:19:04.215Z,87.85
2018-02-20T03:20:04.460Z,87.66
2018-02-20T03:21:04.426Z,87.75
2018-02-20T03:22:04.134Z,87.66
2018-02-20T03:23:04.406Z,87.75
2018-02-20T03:24:04.085Z,87.75
2018-02-20T03:25:04.323Z,87.85
2018-02-20T03:26:04.035Z,87.75
2018-02-20T03:27:04.273Z,88.04
2018-02-20T03:28:03.994Z,87.85
2018-02-20T03:29:03.956Z,87.94
2018-02-20T03:30:04.201Z,87.99
2018-02-20T03:31:04.176Z,87.9
2018-02-20T03:32:04.143Z,87.66
2018-02-20T03:33:04.121Z,87.9
2018-02-20T03:34:03.829Z,88.46
2018-02-20T03:35:04.065Z,88.28
2018-02-20T03:36:03.771Z,88.28
2018-02-20T03:37:03.755Z,88.46
2018-02-20T03:38:03.988Z,87.71
2018-02-20T03:39:03.698Z,87.71
2018-02-20T03:40:03.934Z,87.9
2018-02-20T03:41:03.913Z,87.8
2018-02-20T03:42:03.888Z,87.71
2018-02-20T03:43:03.856Z,87.8
2018-02-20T03:44:03.834Z,87.71
2018-02-20T03:45:03.544Z,87.71
2018-02-20T03:46:03.786Z,88.37
2018-02-20T03:47:03.490Z,88.56
2018-02-20T03:48:03.462Z,88.56
2018-02-20T03:49:03.704Z,88.46
2018-02-20T03:50:03.678Z,88.09
2018-02-20T03:51:03.384Z,87.99
2018-02-20T03:52:03.361Z,87.99
2018-02-20T03:53:03.338Z,88.18
2018-02-20T03:54:03.571Z,88.56
2018-02-20T03:55:03.551Z,88.09
2018-02-20T03:56:03.258Z,88.09
2018-02-20T03:57:03.231Z,88.46
2018-02-20T03:58:03.202Z,88.46
2018-02-20T03:59:03.493Z,88.37
2018-02-20T04:00:03.420Z,88.28
2018-02-20T04:01:03.136Z,88.28
2018-02-20T04:02:03.368Z,88.37
2018-02-20T04:03:03.079Z,88.09
2018-02-20T04:04:03.049Z,88.09
2018-02-20T04:05:03.022Z,88.28
2018-02-20T04:06:03.001Z,88.28
2018-02-20T04:07:02.972Z,88.18
2018-02-20T04:08:03.211Z,88.18
2018-02-20T04:09:03.183Z,88.18
2018-02-20T04:10:02.899Z,88.18
2018-02-20T04:11:02.865Z,88.75
2018-02-20T04:12:03.106Z,88.65
2018-02-20T04:13:03.083Z,88.28
2018-02-20T04:14:03.058Z,88.65
2018-02-20T04:15:03.023Z,87.99
2018-02-20T04:16:02.733Z,88.18
2018-02-20T04:17:02.708Z,88.56
2018-02-20T04:18:02.948Z,88.28
2018-02-20T04:19:02.924Z,88.28
2018-02-20T04:20:02.893Z,88.46
2018-02-20T04:21:02.869Z,87.99
2018-02-20T04:22:02.594Z,87.52
2018-02-20T04:23:02.824Z,87.33
2018-02-20T04:24:02.525Z,86.95
2018-02-20T04:25:02.767Z,87.14
2018-02-20T04:26:02.738Z,87.14
2018-02-20T04:27:02.709Z,87.43
2018-02-20T04:28:02.688Z,87.14
2018-02-20T04:29:02.393Z,87.24
2018-02-20T04:30:02.369Z,87.24
2018-02-20T04:31:02.339Z,87.33
2018-02-20T04:32:02.316Z,87.24
2018-02-20T04:33:02.558Z,87.33
2018-02-20T04:34:02.529Z,87.33
2018-02-20T04:35:02.501Z,87.14
2018-02-20T04:36:02.476Z,87.14
2018-02-20T04:37:02.453Z,87.33
2018-02-20T04:38:02.425Z,87.24
2018-02-20T04:39:02.404Z,87.24
2018-02-20T04:40:02.373Z,87.24
2018-02-20T04:41:02.079Z,87.33
2018-02-20T04:42:02.055Z,87.14
2018-02-20T04:43:02.297Z,87.33
2018-02-20T04:44:02.001Z,87.33
2018-02-20T04:45:02.286Z,87.24
2018-02-20T04:46:02.220Z,87.24
2018-02-20T04:47:02.187Z,87.24
2018-02-20T04:48:01.905Z,87.14
2018-02-20T04:49:01.871Z,87.14
2018-02-20T04:50:01.892Z,87.33
2018-02-20T04:51:01.838Z,87.05
2018-02-20T04:52:01.795Z,87.05
2018-02-20T04:53:01.775Z,87.05
2018-02-20T04:54:02.008Z,87.24
2018-02-20T04:55:01.979Z,87.14
2018-02-20T04:56:01.692Z,87.52
2018-02-20T04:57:01.922Z,87.43
2018-02-20T04:58:01.631Z,87.24
2018-02-20T04:59:01.873Z,87.43
2018-02-20T05:00:01.851Z,87.43
2018-02-20T05:01:01.838Z,87.52
2018-02-20T05:02:01.527Z,87.52
2018-02-20T05:03:01.773Z,87.52
2018-02-20T05:04:01.476Z,87.43
2018-02-20T05:05:01.451Z,87.43
2018-02-20T05:06:01.422Z,87.43
2018-02-20T05:07:01.395Z,87.52
2018-02-20T05:08:01.632Z,87.05
2018-02-20T05:09:01.348Z,87.52
2018-02-20T05:10:01.581Z,87.99
2018-02-20T05:11:01.552Z,87.9
2018-02-20T05:12:01.263Z,87.52
2018-02-20T05:13:01.235Z,87.52
2018-02-20T05:14:01.212Z,87.52
2018-02-20T05:15:01.452Z,87.33
2018-02-20T05:16:01.157Z,87.71
2018-02-20T05:17:01.399Z,87.9
2018-02-20T05:18:01.374Z,87.8
2018-02-20T05:19:01.344Z,87.62
2018-02-20T05:20:01.315Z,87.62
2018-02-20T05:21:01.295Z,87.9
2018-02-20T05:22:01.264Z,87.71
2018-02-20T05:23:00.973Z,87.71
2018-02-20T05:24:01.215Z,87.99
2018-02-20T05:25:01.189Z,87.9
2018-02-20T05:26:00.893Z,87.9
2018-02-20T05:27:01.335Z,88.09
2018-02-20T05:28:01.109Z,87.71
2018-02-20T05:29:01.080Z,87.8
2018-02-20T05:30:01.047Z,87.71
2018-02-20T05:31:01.027Z,87.71
2018-02-20T05:32:00.731Z,87.71
2018-02-20T05:33:00.976Z,87.9
2018-02-20T05:34:00.678Z,87.8
2018-02-20T05:35:00.923Z,87.8
2018-02-20T05:36:00.627Z,87.52
2018-02-20T05:37:00.867Z,87.33
2018-02-20T05:38:00.852Z,87.33
2018-02-20T05:39:00.549Z,87.52
2018-02-20T05:40:00.788Z,87.05
2018-02-20T05:41:00.763Z,87.14
2018-02-20T05:42:00.734Z,87.05
2018-02-20T05:43:00.717Z,86.95
2018-02-20T05:44:00.689Z,86.67
2018-02-20T05:45:00.401Z,85.91
2018-02-20T05:46:00.640Z,86.29
2018-02-20T05:47:00.658Z,87.05
2018-02-20T05:48:00.573Z,86.86
2018-02-20T05:49:00.551Z,86.67
2018-02-20T05:50:00.259Z,86.48
2018-02-20T05:51:00.498Z,86.48
2018-02-20T05:52:00.483Z,86.67
2018-02-20T05:53:00.445Z,86.48
2018-02-20T05:54:00.153Z,86.67
2018-02-20T05:55:00.127Z,86.67
2018-02-20T05:56:00.366Z,86.67
2018-02-20T05:57:00.078Z,86.67
2018-02-20T05:58:00.352Z,86.57
2018-02-20T05:59:00.289Z,86.48
2018-02-20T06:00:00.263Z,86.67
2018-02-20T06:01:00.230Z,86.86
2018-02-20T06:02:00.203Z,86.86
2018-02-20T06:02:59.912Z,86.86
2018-02-20T06:03:59.889Z,86.67
2018-02-20T06:05:00.134Z,86.95
2018-02-20T06:06:00.100Z,86.95
2018-02-20T06:07:00.071Z,86.95
2018-02-20T06:07:59.779Z,87.14
2018-02-20T06:08:59.752Z,87.14
2018-02-20T06:09:59.726Z,86.95
2018-02-20T06:10:59.701Z,87.14
2018-02-20T06:11:59.935Z,86.95
2018-02-20T06:12:59.653Z,87.33
2018-02-20T06:13:59.890Z,87.33
2018-02-20T06:14:59.860Z,87.05
2018-02-20T06:15:59.851Z,87.24
2018-02-20T06:16:59.807Z,87.24
2018-02-20T06:17:59.514Z,87.24
2018-02-20T06:18:59.756Z,87.33
2018-02-20T06:19:59.460Z,87.24
2018-02-20T06:20:59.695Z,87.14
2018-02-20T06:21:59.411Z,87.43
2018-02-20T06:22:59.647Z,87.24
2018-02-20T06:23:59.620Z,87.24
2018-02-20T06:24:59.328Z,87.14
2018-02-20T06:25:59.302Z,87.43
2018-02-20T06:26:59.272Z,87.43
2018-02-20T06:27:59.524Z,87.33
2018-02-20T06:28:59.488Z,87.43
2018-02-20T06:29:59.461Z,87.52
2018-02-20T06:30:59.169Z,86.67
2018-02-20T06:31:59.415Z,86.95
2018-02-20T06:32:59.113Z,86.76
2018-02-20T06:33:59.358Z,86.86
2018-02-20T06:34:59.333Z,86.67
2018-02-20T06:35:59.301Z,86.67
2018-02-20T06:36:59.005Z,86.57
2018-02-20T06:37:58.989Z,86.67
2018-02-20T06:38:58.959Z,86.48
2018-02-20T06:39:59.194Z,86.19
2018-02-20T06:40:59.189Z,86.29
2018-02-20T06:41:59.156Z,86.38
2018-02-20T06:42:59.122Z,85.91
2018-02-20T06:43:59.101Z,86.29
2018-02-20T06:44:59.065Z,85.91
2018-02-20T06:45:59.033Z,86.38
2018-02-20T06:46:58.743Z,85.72
2018-02-20T06:47:58.977Z,85.82
2018-02-20T06:48:58.692Z,86.01
2018-02-20T06:49:58.664Z,85.91
2018-02-20T06:50:58.962Z,85.91
2018-02-20T06:51:58.615Z,85.91
2018-02-20T06:52:58.849Z,86.01
2018-02-20T06:53:58.819Z,85.91
2018-02-20T06:54:58.528Z,85.82
2018-02-20T06:55:58.764Z,85.82
2018-02-20T06:56:58.758Z,85.82
2018-02-20T06:57:58.719Z,85.91
2018-02-20T06:58:58.688Z,86.1
2018-02-20T06:59:58.392Z,85.53
2018-02-20T07:00:58.370Z,85.53
2018-02-20T07:01:58.352Z,85.44
2018-02-20T07:02:58.582Z,85.53
2018-02-20T07:03:58.284Z,85.16
2018-02-20T07:04:58.526Z,84.88
2018-02-20T07:05:58.236Z,85.16
2018-02-20T07:06:58.207Z,85.16
2018-02-20T07:07:58.444Z,85.16
2018-02-20T07:08:58.419Z,84.88
2018-02-20T07:09:58.125Z,84.97
2018-02-20T07:10:58.101Z,85.06
2018-02-20T07:11:58.339Z,84.97
2018-02-20T07:12:58.314Z,85.06
2018-02-20T07:13:58.021Z,84.78
2018-02-20T07:14:57.993Z,84.88
2018-02-20T07:15:58.233Z,85.25
2018-02-20T07:16:57.942Z,84.78
2018-02-20T07:17:57.915Z,84.88
2018-02-20T07:18:58.160Z,84.22
2018-02-20T07:19:57.862Z,84.88
2018-02-20T07:20:58.103Z,83.93
2018-02-20T07:21:58.079Z,84.12
2018-02-20T07:22:57.786Z,84.22
2018-02-20T07:23:57.763Z,84.22
2018-02-20T07:24:57.993Z,84.5
2018-02-20T07:25:57.705Z,83.93
2018-02-20T07:26:58.145Z,83.93
2018-02-20T07:27:57.651Z,84.12
2018-02-20T07:28:57.630Z,84.22
2018-02-20T07:29:57.871Z,84.12
2018-02-20T07:30:57.837Z,83.93
2018-02-20T07:31:57.813Z,84.22
2018-02-20T07:32:57.521Z,84.22
2018-02-20T07:33:57.496Z,83.93
2018-02-20T07:34:57.472Z,83.55
2018-02-20T07:35:57.442Z,83.55
2018-02-20T07:36:57.679Z,83.59
2018-02-20T07:37:57.657Z,83.59
2018-02-20T07:38:57.629Z,83.5
2018-02-20T07:39:57.335Z,83.22
2018-02-20T07:40:57.310Z,82.93
2018-02-20T07:41:57.284Z,83.4
2018-02-20T07:42:57.521Z,83.12
2018-02-20T07:43:57.550Z,82.93
2018-02-20T07:44:57.468Z,83.88
2018-02-20T07:45:57.446Z,83.31
2018-02-20T07:46:57.155Z,82.84
2018-02-20T07:47:57.394Z,83.22
2018-02-20T07:48:57.374Z,83.12
2018-02-20T07:49:57.355Z,82.93
2018-02-20T07:50:57.317Z,82.65
2018-02-20T07:51:57.290Z,82.65
2018-02-20T07:52:57.267Z,82.84
2018-02-20T07:53:56.976Z,82.75
2018-02-20T07:54:57.215Z,82.65
2018-02-20T07:55:56.921Z,82.18
2018-02-20T07:56:56.896Z,82.46
2018-02-20T07:57:56.870Z,82.56
2018-02-20T07:58:57.113Z,82.46
2018-02-20T07:59:57.088Z,82.65
2018-02-20T08:00:57.058Z,82.46
2018-02-20T08:01:57.035Z,82.37
2018-02-20T08:02:56.742Z,82.09
2018-02-20T08:03:56.717Z,82.09
2018-02-20T08:04:56.696Z,82.28
2018-02-20T08:05:56.933Z,82.22
2018-02-20T08:06:56.643Z,82.5
2018-02-20T08:07:56.617Z,82.03
2018-02-20T08:08:56.594Z,81.65
2018-02-20T08:09:56.566Z,81.84
2018-02-20T08:10:56.544Z,81.93
2018-02-20T08:11:56.518Z,81.74
2018-02-20T08:12:56.758Z,81.74
2018-02-20T08:13:56.738Z,81.74
2018-02-20T08:14:56.711Z,81.56
2018-02-20T08:15:56.680Z,81.84
2018-02-20T08:16:56.661Z,81.93
2018-02-20T08:17:56.632Z,81.93
2018-02-20T08:18:56.607Z,82.03
2018-02-20T08:19:56.580Z,82.31
2018-02-20T08:20:56.554Z,82.22
2018-02-20T08:21:56.265Z,82.22
2018-02-20T08:22:56.503Z,82.12
2018-02-20T08:23:56.478Z,82.22
2018-02-20T08:24:56.457Z,81.93
2018-02-20T08:25:56.166Z,82.12
2018-02-20T08:26:56.142Z,81.74
2018-02-20T08:27:56.120Z,82.12
2018-02-20T08:28:56.092Z,82.31
2018-02-20T08:29:56.065Z,82.41
2018-02-20T08:30:56.042Z,82.79
2018-02-20T08:31:56.283Z,82.6
2018-02-20T08:32:55.992Z,82.73
2018-02-20T08:33:55.978Z,81.98
2018-02-20T08:34:56.222Z,82.54
2018-02-20T08:35:55.926Z,83.06
2018-02-20T08:36:55.899Z,82.83
2018-02-20T08:37:56.139Z,84.34
2018-02-20T08:38:56.117Z,84.72
2018-02-20T08:39:55.829Z,84.39
2018-02-20T08:40:56.074Z,84.77
2018-02-20T08:41:55.780Z,87.27
2018-02-20T08:42:55.760Z,93.46
2018-02-20T08:43:56.004Z,98.72
2018-02-20T08:44:55.713Z,99.99
2018-02-20T08:45:55.954Z,99.99
2018-02-20T08:46:55.934Z,99.99
2018-02-20T08:47:55.910Z,99.99
2018-02-20T08:48:55.624Z,99.99
2018-02-20T08:49:55.605Z,99.99
2018-02-20T08:50:55.851Z,99.99
2018-02-20T08:51:55.829Z,99.99
2018-02-20T08:52:55.808Z,99.99
2018-02-20T08:53:55.787Z,99.99
2018-02-20T08:54:55.502Z,99.99
2018-02-20T08:55:55.746Z,99.99
2018-02-20T08:56:55.723Z,99.99
2018-02-20T08:57:55.442Z,99.99
2018-02-20T08:58:55.686Z,99.99
2018-02-20T08:59:55.673Z,99.99
2018-02-20T09:00:55.648Z,99.99
2018-02-20T09:01:55.640Z,99.99
2018-02-20T09:02:55.350Z,99.99
2018-02-20T09:03:55.594Z,99.99
2018-02-20T09:04:55.579Z,99.99
2018-02-20T09:05:55.563Z,99.99
2018-02-20T09:06:55.277Z,99.99
2018-02-20T09:07:55.259Z,99.99
2018-02-20T09:08:55.242Z,99.99
2018-02-20T09:09:55.495Z,99.99
2018-02-20T09:10:55.210Z,99.99
2018-02-20T09:11:55.455Z,99.99
2018-02-20T09:12:55.438Z,99.99
2018-02-20T09:13:55.428Z,99.99
2018-02-20T09:14:55.406Z,99.99
2018-02-20T09:15:55.392Z,99.99
2018-02-20T09:16:55.106Z,99.99
2018-02-20T09:17:55.357Z,99.99
2018-02-20T09:18:55.339Z,99.99
2018-02-20T09:19:55.322Z,99.99
2018-02-20T09:20:55.305Z,99.99
2018-02-20T09:21:55.027Z,99.99
2018-02-20T09:22:55.279Z,99.99
2018-02-20T09:23:55.256Z,99.99
2018-02-20T09:24:55.239Z,99.99
2018-02-20T09:25:55.237Z,99.99
2018-02-20T09:26:55.415Z,99.99
2018-02-20T09:27:55.196Z,99.99
2018-02-20T09:28:54.915Z,99.99
2018-02-20T09:29:55.158Z,99.99
2018-02-20T09:30:55.144Z,99.99
2018-02-20T09:31:55.126Z,99.99
2018-02-20T09:32:54.848Z,99.99
2018-02-20T09:33:55.091Z,99.99
2018-02-20T09:34:55.077Z,99.99
2018-02-20T09:35:55.058Z,99.99
2018-02-20T09:36:55.052Z,99.99
2018-02-20T09:37:54.761Z,99.99
2018-02-20T09:38:55.007Z,99.99
2018-02-20T09:39:55.011Z,99.99
2018-02-20T09:40:54.979Z,99.99
2018-02-20T09:41:54.697Z,99.99
2018-02-20T09:42:54.942Z,99.99
2018-02-20T09:43:54.926Z,99.99
2018-02-20T09:44:54.911Z,99.99
2018-02-20T09:45:54.892Z,99.99
2018-02-20T09:46:54.879Z,99.99
2018-02-20T09:47:54.859Z,99.99
2018-02-20T09:48:54.839Z,99.99
2018-02-20T09:49:54.560Z,99.99
2018-02-20T09:50:54.539Z,99.99
2018-02-20T09:51:54.527Z,99.99
2018-02-20T09:52:54.781Z,99.99
2018-02-20T09:53:54.759Z,99.99
2018-02-20T09:54:54.739Z,99.99
2018-02-20T09:55:54.474Z,99.99
2018-02-20T09:56:54.445Z,99.99
2018-02-20T09:57:54.426Z,99.99
2018-02-20T09:58:54.682Z,99.99
2018-02-20T09:59:54.395Z,99.99
2018-02-20T10:00:54.646Z,99.99
2018-02-20T10:01:54.629Z,99.99
2018-02-20T10:02:54.346Z,99.99
2018-02-20T10:03:54.332Z,99.99
2018-02-20T10:04:54.316Z,99.99
2018-02-20T10:05:54.302Z,99.99
2018-02-20T10:06:54.547Z,99.99
2018-02-20T10:07:54.266Z,99.99
2018-02-20T10:08:54.519Z,99.99
2018-02-20T10:09:54.236Z,99.99
2018-02-20T10:10:54.513Z,99.99
2018-02-20T10:11:54.467Z,99.99
2018-02-20T10:12:54.455Z,99.99
2018-02-20T10:13:54.436Z,99.99
2018-02-20T10:14:54.424Z,99.99
2018-02-20T10:15:54.406Z,99.99
2018-02-20T10:16:54.124Z,99.99
2018-02-20T10:17:54.106Z,99.99
2018-02-20T10:18:54.362Z,99.99
2018-02-20T10:19:54.417Z,99.99
2018-02-20T10:20:54.379Z,99.99
2018-02-20T10:21:54.050Z,99.99
2018-02-20T10:22:54.304Z,99.99
2018-02-20T10:23:54.026Z,99.99
2018-02-20T10:24:54.022Z,99.99
2018-02-20T10:25:54.267Z,99.99
2018-02-20T10:26:54.301Z,99.99
2018-02-20T10:27:53.970Z,99.99
2018-02-20T10:28:54.227Z,99.99
2018-02-20T10:29:53.943Z,99.99
2018-02-20T10:30:54.209Z,99.99
2018-02-20T10:31:53.909Z,99.99
2018-02-20T10:32:54.166Z,99.99
2018-02-20T10:33:53.881Z,99.99
2018-02-20T10:34:54.138Z,99.99
2018-02-20T10:35:53.857Z,99.99
2018-02-20T10:36:53.850Z,99.99
2018-02-20T10:37:54.098Z,99.99
2018-02-20T10:38:54.076Z,99.99
2018-02-20T10:39:53.799Z,99.99
2018-02-20T10:40:54.053Z,99.99
2018-02-20T10:41:54.039Z,99.99
2018-02-20T10:42:54.026Z,99.99
2018-02-20T10:43:53.745Z,99.99
2018-02-20T10:44:53.998Z,99.99
2018-02-20T10:45:53.985Z,99.99
2018-02-20T10:46:53.972Z,99.6
2018-02-20T10:47:53.956Z,98.65
2018-02-20T10:48:53.943Z,99.84
2018-02-20T10:49:53.950Z,99.99
2018-02-20T10:50:53.920Z,99.99
2018-02-20T10:51:53.639Z,99.99
2018-02-20T10:52:53.935Z,99.6
2018-02-20T10:53:53.882Z,98.08
2018-02-20T10:54:53.864Z,98.08
2018-02-20T10:55:53.858Z,99.99
2018-02-20T10:56:53.587Z,98.69
2018-02-20T10:57:53.828Z,97.79
2018-02-20T10:58:53.815Z,98.36
2018-02-20T10:59:53.537Z,94.46
2018-02-20T11:00:53.788Z,95.84
2018-02-20T11:01:53.776Z,95.32
2018-02-20T11:02:53.759Z,92.98
2018-02-20T11:03:53.568Z,92.08
2018-02-20T11:04:53.472Z,90.46
2018-02-20T11:05:53.459Z,92.74
2018-02-20T11:06:53.766Z,94.74
2018-02-20T11:07:53.445Z,97.27
2018-02-20T11:08:53.727Z,95.6
2018-02-20T11:09:53.889Z,96.27
2018-02-20T11:10:53.663Z,93.7
2018-02-20T11:11:53.390Z,94.89
2018-02-20T11:12:53.375Z,93.08
2018-02-20T11:13:53.629Z,94.98
2018-02-20T11:14:53.353Z,93.41
2018-02-20T11:15:53.340Z,93.22
2018-02-20T11:16:54.475Z,96.84
2018-02-20T11:17:53.318Z,97.08
2018-02-20T11:18:53.312Z,96.94
2018-02-20T11:19:53.295Z,96.84
2018-02-20T11:20:53.552Z,96.27
2018-02-20T11:21:53.542Z,95.7
2018-02-20T11:22:53.264Z,95.98
2018-02-20T11:23:53.253Z,94.17
2018-02-20T11:24:53.241Z,92.84
2018-02-20T11:25:53.497Z,93.08
2018-02-20T11:26:53.689Z,91.55
2018-02-20T11:27:53.473Z,91.94
2018-02-20T11:28:53.199Z,90.12
2018-02-20T11:29:53.459Z,89.94
2018-02-20T11:30:53.227Z,87.84
2018-02-20T11:31:53.430Z,90.84
2018-02-20T11:32:53.419Z,92.13
2018-02-20T11:33:53.409Z,90.12
2018-02-20T11:34:53.409Z,90.36
2018-02-20T11:35:53.125Z,88.93
2018-02-20T11:36:53.379Z,89.12
2018-02-20T11:37:53.373Z,88.78
2018-02-20T11:38:53.359Z,87.54
2018-02-20T11:39:53.350Z,86.63
2018-02-20T11:40:53.072Z,86.82
2018-02-20T11:41:53.058Z,83.96
2018-02-20T11:42:53.317Z,83.58
2018-02-20T11:43:53.378Z,84.63
2018-02-20T11:44:53.299Z,83.72
2018-02-20T11:45:53.285Z,80.85
2018-02-20T11:46:53.014Z,79.61
2018-02-20T11:47:53.272Z,79.04
2018-02-20T11:48:52.994Z,77.23
2018-02-20T11:49:52.988Z,77.13
2018-02-20T11:50:53.240Z,79.99
2018-02-20T11:51:52.971Z,79.61
2018-02-20T11:52:52.962Z,80.72
2018-02-20T11:53:53.215Z,80.62
2018-02-20T11:54:53.205Z,80.91
2018-02-20T11:55:53.216Z,80.39
2018-02-20T11:56:52.928Z,79.72
2018-02-20T11:57:53.185Z,80.68
2018-02-20T11:58:52.910Z,82.2
2018-02-20T11:59:53.168Z,82.3
2018-02-20T12:00:53.157Z,83.16
2018-02-20T12:01:53.152Z,85.06
2018-02-20T12:02:53.142Z,84.11
2018-02-20T12:03:53.133Z,84.4
2018-02-20T12:04:52.856Z,83.25
2018-02-20T12:05:52.853Z,83.54
2018-02-20T12:06:53.105Z,83.25
2018-02-20T12:07:52.831Z,83.64
2018-02-20T12:08:53.093Z,84.59
2018-02-20T12:09:53.078Z,82.72
2018-02-20T12:10:52.812Z,79.57
2018-02-20T12:11:52.805Z,78.85
2018-02-20T12:12:53.059Z,76.84
2018-02-20T12:13:52.837Z,77.13
2018-02-20T12:14:53.044Z,75.64
2018-02-20T12:15:53.038Z,74.98
2018-02-20T12:16:53.049Z,74.49
2018-02-20T12:17:53.038Z,75.2
2018-02-20T12:18:53.037Z,75.68
2018-02-20T12:19:52.762Z,75.05
2018-02-20T12:20:53.039Z,73.9
2018-02-20T12:21:53.005Z,73.9
2018-02-20T12:22:53.004Z,73.55
2018-02-20T12:23:53.001Z,70.87
2018-02-20T12:24:52.996Z,69.06
2018-02-20T12:25:52.992Z,68.52
2018-02-20T12:26:52.990Z,69.64
2018-02-20T12:27:52.726Z,69.76
2018-02-20T12:28:52.981Z,70.43
2018-02-20T12:29:52.972Z,70.01
2018-02-20T12:30:52.704Z,70.4
2018-02-20T12:31:52.967Z,70.21
2018-02-20T12:32:52.963Z,71.07
2018-02-20T12:33:52.692Z,71.58
2018-02-20T12:34:52.690Z,68.8
2018-02-20T12:35:53.017Z,69.57
2018-02-20T12:36:52.960Z,69.44
2018-02-20T12:37:52.676Z,68.29
2018-02-20T12:38:52.936Z,70.68
2018-02-20T12:39:52.933Z,70.78
2018-02-20T12:40:52.936Z,71.16
2018-02-20T12:41:52.663Z,69.92
2018-02-20T12:42:52.934Z,69.15
2018-02-20T12:43:52.659Z,69.44
2018-02-20T12:44:52.852Z,67.18
2018-02-20T12:45:52.650Z,67.27
2018-02-20T12:46:52.912Z,66.35
2018-02-20T12:47:52.907Z,67.41
2018-02-20T12:48:52.899Z,66.16
2018-02-20T12:49:52.919Z,65.49
2018-02-20T12:50:52.633Z,66.35
2018-02-20T12:51:52.625Z,65.11
2018-02-20T12:52:52.628Z,63.86
2018-02-20T12:53:52.622Z,63.48